createdAt,value
2018-12-11T00:02:29.857Z,0.40
2018-12-11T00:05:01.734Z,0.90
2018-12-11T00:07:31.726Z,0.40
2018-12-11T00:10:01.743Z,0.70
2018-12-11T00:12:32.252Z,0.60
2018-12-11T00:15:02.373Z,0.73
2018-12-11T00:17:32.318Z,0.40
2018-12-11T00:20:02.367Z,0.73
2018-12-11T00:22:32.373Z,0.90
2018-12-11T00:25:02.382Z,0.40
2018-12-11T00:27:32.361Z,0.20
2018-12-11T00:30:02.451Z,0.30
2018-12-11T00:32:32.449Z,0.40
2018-12-11T00:35:02.525Z,0.40
2018-12-11T00:37:32.606Z,0.30
2018-12-11T00:40:02.680Z,0.90
2018-12-11T00:42:32.710Z,0.50
2018-12-11T00:45:02.715Z,0.23
2018-12-11T00:47:32.680Z,0.40
2018-12-11T00:50:02.613Z,0.40
2018-12-11T00:52:32.518Z,0.80
2018-12-11T00:55:02.451Z,0.30
2018-12-11T00:57:32.640Z,0.70
2018-12-11T01:00:02.763Z,0.50
2018-12-11T01:02:32.749Z,0.50
2018-12-11T01:05:02.772Z,0.50
2018-12-11T01:07:32.765Z,0.30
2018-12-11T01:12:50.452Z,0.50
2018-12-11T01:15:21.663Z,0.43
2018-12-11T01:17:50.647Z,0.57
2018-12-11T01:20:20.594Z,0.45
2018-12-11T01:22:50.548Z,0.50
2018-12-11T01:25:20.634Z,0.43
2018-12-11T01:27:50.546Z,0.30
2018-12-11T01:30:20.568Z,0.60
2018-12-11T01:32:50.580Z,0.40
2018-12-11T01:35:20.593Z,0.30
2018-12-11T01:37:50.518Z,1.03
2018-12-11T01:40:20.448Z,0.40
2018-12-11T01:42:50.433Z,0.40
2018-12-11T01:45:20.375Z,0.27
2018-12-11T01:47:50.366Z,0.60
2018-12-11T01:50:20.374Z,0.37
2018-12-11T01:52:50.498Z,0.70
2018-12-11T01:55:20.436Z,0.40
2018-12-11T01:57:50.416Z,0.60
2018-12-11T02:03:08.068Z,0.30
2018-12-11T02:05:38.017Z,0.90
2018-12-11T02:08:08.033Z,0.27
2018-12-11T02:10:38.036Z,0.40
2018-12-11T02:13:08.052Z,0.60
2018-12-11T02:15:37.963Z,0.30
2018-12-11T02:18:08.262Z,0.33
2018-12-11T02:23:23.737Z,0.20
2018-12-11T02:25:53.797Z,0.23
2018-12-11T02:28:23.790Z,0.30
2018-12-11T02:30:54.292Z,0.30
2018-12-11T02:33:24.431Z,0.50
2018-12-11T02:35:54.475Z,0.50
2018-12-11T02:38:24.669Z,0.30
2018-12-11T02:40:54.704Z,0.30
2018-12-11T02:43:24.785Z,0.30
2018-12-11T02:45:54.698Z,0.80
2018-12-11T02:48:24.992Z,0.40
2018-12-11T02:50:54.972Z,0.63
2018-12-11T02:53:25.287Z,0.50
2018-12-11T02:55:55.406Z,0.30
2018-12-11T02:58:25.481Z,0.20
2018-12-11T03:00:55.474Z,0.20
2018-12-11T03:03:25.570Z,0.30
2018-12-11T03:05:55.557Z,0.33
2018-12-11T03:08:25.581Z,0.40
2018-12-11T03:10:55.497Z,0.30
2018-12-11T03:13:25.527Z,0.33
2018-12-11T03:15:55.601Z,0.20
2018-12-11T03:18:25.652Z,0.37
2018-12-11T03:20:55.572Z,0.30
2018-12-11T03:23:25.734Z,0.40
2018-12-11T03:25:55.728Z,0.60
2018-12-11T03:28:25.633Z,0.40
2018-12-11T03:30:55.626Z,0.40
2018-12-11T03:33:25.838Z,0.62
2018-12-11T03:35:55.757Z,0.75
2018-12-11T03:38:26.558Z,0.30
2018-12-11T03:40:56.733Z,0.40
2018-12-11T03:43:26.694Z,0.30
2018-12-11T03:45:56.729Z,0.10
2018-12-11T03:48:26.835Z,0.90
2018-12-11T03:50:56.818Z,0.33
2018-12-11T03:53:26.844Z,0.47
2018-12-11T03:55:57.876Z,0.47
2018-12-11T03:58:28.026Z,0.33
2018-12-11T04:00:58.005Z,0.60
2018-12-11T04:03:28.364Z,1.20
2018-12-11T04:05:58.278Z,1.37
2018-12-11T04:08:28.434Z,0.30
2018-12-11T04:10:58.344Z,0.47
2018-12-11T04:13:28.465Z,0.20
2018-12-11T04:15:58.398Z,0.30
2018-12-11T04:18:28.449Z,0.53
2018-12-11T04:20:58.404Z,0.30
2018-12-11T04:23:28.547Z,0.30
2018-12-11T04:25:58.460Z,0.40
2018-12-11T04:28:28.756Z,0.40
2018-12-11T04:30:58.815Z,0.45
2018-12-11T04:33:29.052Z,0.30
2018-12-11T04:35:58.970Z,0.30
2018-12-11T04:38:29.052Z,0.73
2018-12-11T04:40:58.979Z,0.50
2018-12-11T04:43:29.141Z,0.47
2018-12-11T04:45:59.166Z,0.63
2018-12-11T04:48:29.227Z,0.65
2018-12-11T04:50:59.227Z,0.60
2018-12-11T04:53:29.131Z,0.30
2018-12-11T04:55:59.056Z,0.30
2018-12-11T04:58:29.246Z,0.37
2018-12-11T05:00:59.180Z,0.47
2018-12-11T05:03:29.351Z,0.50
2018-12-11T05:05:59.282Z,0.20
2018-12-11T05:08:29.270Z,0.53
2018-12-11T05:10:59.197Z,0.40
2018-12-11T05:13:29.313Z,0.70
2018-12-11T05:15:59.253Z,0.40
2018-12-11T05:18:29.317Z,0.28
2018-12-11T05:21:00.380Z,0.43
2018-12-11T05:26:16.052Z,0.50
2018-12-11T05:31:46.645Z,0.20
2018-12-11T05:34:16.555Z,0.80
2018-12-11T05:36:46.468Z,0.20
2018-12-11T05:39:16.493Z,0.55
2018-12-11T05:41:46.725Z,0.30
2018-12-11T05:44:16.686Z,1.45
2018-12-11T05:46:46.723Z,0.40
2018-12-11T05:49:16.672Z,0.47
2018-12-11T05:51:46.581Z,0.53
2018-12-11T05:54:16.657Z,0.47
2018-12-11T05:56:46.681Z,0.40
2018-12-11T05:59:16.595Z,0.72
2018-12-11T06:01:46.681Z,0.20
2018-12-11T06:04:16.709Z,0.40
2018-12-11T06:06:46.624Z,0.40
2018-12-11T06:09:16.594Z,0.65
2018-12-11T06:11:46.702Z,0.70
2018-12-11T06:14:16.676Z,0.60
2018-12-11T06:16:46.752Z,0.40
2018-12-11T06:19:17.830Z,0.23
2018-12-11T06:21:47.877Z,0.30
2018-12-11T06:24:17.812Z,0.30
2018-12-11T06:26:47.744Z,0.60
2018-12-11T06:29:17.664Z,0.68
2018-12-11T06:31:47.669Z,0.50
2018-12-11T06:34:17.584Z,0.35
2018-12-11T06:36:48.074Z,0.30
2018-12-11T06:39:18.076Z,0.50
2018-12-11T06:41:48.289Z,0.40
2018-12-11T06:44:18.213Z,0.20
2018-12-11T06:46:48.264Z,0.50
2018-12-11T06:49:18.172Z,0.98
2018-12-11T06:51:48.180Z,0.50
2018-12-11T06:54:18.085Z,0.50
2018-12-11T06:56:47.992Z,0.40
2018-12-11T06:59:17.920Z,0.47
2018-12-11T07:01:47.844Z,0.67
2018-12-11T07:04:17.819Z,0.60
2018-12-11T07:06:47.784Z,0.30
2018-12-11T07:09:17.757Z,0.60
2018-12-11T07:11:47.763Z,0.50
2018-12-11T07:14:17.677Z,0.30
2018-12-11T07:16:47.609Z,1.13
2018-12-11T07:19:17.557Z,0.53
2018-12-11T07:21:47.458Z,0.40
2018-12-11T07:24:17.452Z,0.80
2018-12-11T07:26:47.369Z,0.60
2018-12-11T07:29:17.285Z,0.47
2018-12-11T07:31:47.256Z,0.73
2018-12-11T07:34:17.200Z,0.65
2018-12-11T07:36:47.296Z,0.87
2018-12-11T07:39:17.296Z,0.78
2018-12-11T07:41:47.322Z,0.43
2018-12-11T07:44:17.575Z,0.60
2018-12-11T07:46:47.509Z,0.47
2018-12-11T07:49:17.431Z,0.60
2018-12-11T07:51:47.358Z,0.50
2018-12-11T07:54:17.319Z,0.40
2018-12-11T07:56:47.240Z,0.30
2018-12-11T07:59:17.240Z,0.70
2018-12-11T08:01:47.233Z,0.33
2018-12-11T08:04:17.176Z,0.70
2018-12-11T08:06:47.426Z,0.40
2018-12-11T08:09:17.349Z,0.55
2018-12-11T08:11:47.362Z,0.53
2018-12-11T08:14:17.364Z,0.50
2018-12-11T08:16:47.281Z,0.60
2018-12-11T08:19:17.270Z,0.50
2018-12-11T08:21:47.289Z,0.60
2018-12-11T08:24:17.193Z,0.50
2018-12-11T08:26:47.156Z,0.40
2018-12-11T08:29:17.150Z,0.40
2018-12-11T08:31:47.157Z,0.30
2018-12-11T08:34:17.064Z,0.30
2018-12-11T08:36:47.140Z,0.67
2018-12-11T08:39:25.029Z,0.47
2018-12-11T08:41:55.018Z,0.68
2018-12-11T08:44:25.116Z,0.57
2018-12-11T08:46:55.142Z,0.60
2018-12-11T08:49:25.226Z,0.50
2018-12-11T08:51:55.161Z,0.47
2018-12-11T08:54:25.169Z,0.50
2018-12-11T08:56:55.090Z,0.63
2018-12-11T08:59:25.142Z,0.50
2018-12-11T09:01:55.193Z,0.78
2018-12-11T09:04:25.238Z,0.80
2018-12-11T09:06:55.216Z,0.57
2018-12-11T09:09:25.137Z,0.67
2018-12-11T09:11:55.156Z,0.50
2018-12-11T09:14:25.087Z,0.70
2018-12-11T09:16:55.045Z,0.70
2018-12-11T09:19:24.949Z,0.60
2018-12-11T09:21:54.884Z,1.27
2018-12-11T09:24:24.815Z,0.70
2018-12-11T09:26:54.843Z,0.53
2018-12-11T09:29:24.772Z,0.60
2018-12-11T09:31:54.706Z,0.50
2018-12-11T09:34:24.829Z,0.60
2018-12-11T09:36:54.851Z,0.60
2018-12-11T09:39:24.848Z,0.90
2018-12-11T09:41:54.813Z,0.50
2018-12-11T09:44:24.804Z,0.60
2018-12-11T09:46:54.713Z,0.70
2018-12-11T09:49:24.622Z,0.83
2018-12-11T09:51:54.580Z,0.60
2018-12-11T09:54:24.519Z,0.60
2018-12-11T09:56:54.456Z,0.70
2018-12-11T09:59:24.417Z,0.50
2018-12-11T10:01:54.782Z,0.67
2018-12-11T10:04:24.701Z,0.40
2018-12-11T10:06:54.681Z,1.00
2018-12-11T10:09:24.591Z,0.87
2018-12-11T10:11:54.722Z,0.63
2018-12-11T10:14:24.633Z,0.63
2018-12-11T10:16:54.596Z,0.90
2018-12-11T10:19:24.512Z,1.05
2018-12-11T10:21:54.613Z,0.40
2018-12-11T10:24:25.512Z,0.85
2018-12-11T10:26:56.631Z,0.47
2018-12-11T10:29:26.581Z,0.60
2018-12-11T10:31:56.619Z,0.60
2018-12-11T10:34:26.537Z,0.80
2018-12-11T10:36:56.449Z,0.67
2018-12-11T10:39:26.451Z,0.90
2018-12-11T10:41:56.393Z,0.50
2018-12-11T10:44:26.311Z,0.83
2018-12-11T10:46:56.284Z,0.40
2018-12-11T10:49:27.274Z,0.60
2018-12-11T10:51:57.607Z,0.63
2018-12-11T10:54:27.582Z,0.33
2018-12-11T10:56:57.491Z,0.83
2018-12-11T10:59:27.512Z,0.60
2018-12-11T11:04:52.460Z,0.70
2018-12-11T11:07:22.570Z,0.93
2018-12-11T11:09:52.501Z,0.68
2018-12-11T11:12:22.469Z,0.50
2018-12-11T11:14:52.538Z,0.70
2018-12-11T11:17:22.569Z,0.70
2018-12-11T11:19:52.490Z,0.40
2018-12-11T11:22:23.533Z,0.43
2018-12-11T11:24:53.468Z,0.70
2018-12-11T11:27:23.388Z,0.50
2018-12-11T11:29:53.381Z,0.57
2018-12-11T11:32:23.389Z,0.50
2018-12-11T11:34:53.301Z,0.40
2018-12-11T11:37:23.237Z,0.50
2018-12-11T11:39:53.149Z,0.60
2018-12-11T11:42:23.336Z,0.80
2018-12-11T11:44:53.733Z,0.60
2018-12-11T11:47:23.737Z,0.40
2018-12-11T11:49:53.665Z,0.40
2018-12-11T11:52:23.583Z,0.37
2018-12-11T11:54:53.599Z,0.60
2018-12-11T11:57:29.576Z,0.88
2018-12-11T11:59:55.429Z,0.63
2018-12-11T12:02:25.402Z,0.63
2018-12-11T12:04:55.389Z,0.70
2018-12-11T12:07:25.300Z,0.70
2018-12-11T12:09:56.411Z,0.80
2018-12-11T12:12:26.329Z,0.80
2018-12-11T12:14:56.289Z,0.40
2018-12-11T12:17:26.205Z,0.50
2018-12-11T12:19:56.122Z,0.80
2018-12-11T12:22:26.020Z,0.83
2018-12-11T12:24:55.960Z,0.50
2018-12-11T12:27:25.854Z,0.60
2018-12-11T12:29:55.784Z,0.50
2018-12-11T12:32:26.277Z,1.00
2018-12-11T12:34:56.184Z,0.80
2018-12-11T12:37:26.088Z,0.50
2018-12-11T12:39:56.024Z,0.60
2018-12-11T12:42:25.938Z,0.57
2018-12-11T12:44:55.941Z,0.50
2018-12-11T12:47:26.012Z,1.23
2018-12-11T12:49:56.048Z,0.82
2018-12-11T12:52:25.957Z,0.73
2018-12-11T12:54:55.856Z,0.70
2018-12-11T12:57:25.783Z,0.60
2018-12-11T12:59:55.725Z,0.50
2018-12-11T13:02:25.732Z,0.83
2018-12-11T13:04:55.791Z,0.70
2018-12-11T13:10:10.988Z,0.70
2018-12-11T13:12:41.173Z,0.67
2018-12-11T13:15:11.184Z,0.60
2018-12-11T13:17:41.086Z,0.40
2018-12-11T13:20:11.077Z,0.57
2018-12-11T13:22:41.068Z,0.40
2018-12-11T13:25:11.125Z,1.10
2018-12-11T13:27:41.059Z,0.53
2018-12-11T13:30:11.127Z,0.60
2018-12-11T13:32:41.088Z,0.70
2018-12-11T13:35:11.095Z,0.97
2018-12-11T13:37:41.014Z,0.60
2018-12-11T13:40:12.132Z,0.73
2018-12-11T13:42:42.035Z,0.60
2018-12-11T13:45:12.154Z,0.77
2018-12-11T13:47:42.089Z,1.00
2018-12-11T13:50:12.242Z,1.10
2018-12-11T13:52:42.257Z,0.80
2018-12-11T13:55:12.345Z,0.97
2018-12-11T13:57:42.280Z,0.83
2018-12-11T14:00:12.282Z,0.87
2018-12-11T14:02:42.200Z,0.50
2018-12-11T14:05:12.373Z,0.80
2018-12-11T14:07:44.029Z,0.40
2018-12-11T14:13:03.364Z,0.80
2018-12-11T14:15:33.462Z,0.53
2018-12-11T14:18:06.842Z,0.40
2018-12-11T14:20:37.141Z,0.83
2018-12-11T14:23:08.390Z,0.57
2018-12-11T14:25:38.309Z,0.93
2018-12-11T14:28:08.436Z,0.70
2018-12-11T14:30:39.187Z,0.77
2018-12-11T14:33:09.157Z,0.98
2018-12-11T14:35:39.236Z,0.70
2018-12-11T14:38:09.226Z,0.65
2018-12-11T14:40:39.165Z,0.60
2018-12-11T14:43:09.070Z,0.60
2018-12-11T14:45:39.320Z,0.60
2018-12-11T14:48:10.763Z,0.40
2018-12-11T14:50:40.969Z,0.90
2018-12-11T14:53:10.861Z,0.60
2018-12-11T14:55:40.799Z,0.93
2018-12-11T14:58:10.698Z,0.83
2018-12-11T15:00:40.653Z,0.80
2018-12-11T15:03:13.007Z,0.60
2018-12-11T15:05:43.093Z,0.70
2018-12-11T15:08:13.028Z,0.90
2018-12-11T15:10:43.046Z,0.93
2018-12-11T15:13:12.949Z,1.05
2018-12-11T15:15:42.918Z,0.62
2018-12-11T15:18:12.821Z,0.40
2018-12-11T15:20:42.781Z,0.60
2018-12-11T15:23:12.741Z,0.62
2018-12-11T15:25:42.686Z,1.20
2018-12-11T15:28:12.885Z,1.07
2018-12-11T15:30:46.156Z,1.42
2018-12-11T15:33:16.056Z,1.50
2018-12-11T15:35:45.991Z,1.57
2018-12-11T15:38:15.904Z,0.93
2018-12-11T15:40:45.847Z,1.20
2018-12-11T15:43:16.016Z,1.12
2018-12-11T15:45:46.056Z,1.30
2018-12-11T15:48:16.564Z,1.07
2018-12-11T15:50:46.617Z,0.45
2018-12-11T15:53:16.588Z,0.97
2018-12-11T15:55:46.530Z,1.07
2018-12-11T15:58:24.813Z,1.43
2018-12-11T16:00:51.825Z,0.85
2018-12-11T16:03:21.811Z,1.00
2018-12-11T16:05:51.889Z,0.95
2018-12-11T16:08:21.996Z,1.70
2018-12-11T16:10:53.380Z,2.77
2018-12-11T16:13:23.316Z,8.70
2018-12-11T16:15:53.375Z,9.13
2018-12-11T16:18:23.433Z,8.17
2018-12-11T16:20:53.491Z,4.50
2018-12-11T16:23:23.465Z,1.77
2018-12-11T16:25:58.186Z,2.20
2018-12-11T16:28:28.974Z,1.35
2018-12-11T16:30:59.012Z,1.60
2018-12-11T16:33:28.928Z,1.60
2018-12-11T16:35:59.117Z,2.03
2018-12-11T16:38:29.169Z,2.25
2018-12-11T16:40:59.445Z,0.90
2018-12-11T16:43:29.434Z,1.10
2018-12-11T16:45:59.604Z,1.00
2018-12-11T16:48:29.645Z,1.85
2018-12-11T16:50:59.621Z,1.72
2018-12-11T16:53:29.556Z,1.52
2018-12-11T16:55:59.581Z,1.70
2018-12-11T16:58:29.483Z,1.17
2018-12-11T17:00:59.595Z,2.70
2018-12-11T17:03:29.501Z,1.82
2018-12-11T17:05:59.432Z,1.30
2018-12-11T17:11:14.387Z,1.40
2018-12-11T17:13:44.904Z,1.30
2018-12-11T17:19:00.233Z,1.10
2018-12-11T17:21:30.206Z,1.47
2018-12-11T17:24:00.105Z,1.93
2018-12-11T17:26:30.122Z,2.67
2018-12-11T17:29:00.085Z,1.53
2018-12-11T17:31:30.048Z,1.62
2018-12-11T17:33:59.958Z,1.50
2018-12-11T17:36:29.937Z,0.97
2018-12-11T17:38:59.989Z,1.07
2018-12-11T17:41:30.005Z,1.80
2018-12-11T17:43:59.895Z,1.60
2018-12-11T17:46:29.850Z,1.10
2018-12-11T17:48:59.793Z,1.85
2018-12-11T17:51:29.854Z,1.10
2018-12-11T17:53:59.789Z,0.80
2018-12-11T17:56:29.743Z,0.80
2018-12-11T17:58:59.977Z,1.20
2018-12-11T18:04:19.789Z,1.13
2018-12-11T18:06:49.837Z,0.90
2018-12-11T18:09:19.822Z,0.85
2018-12-11T18:11:49.816Z,1.40
2018-12-11T18:14:19.884Z,1.60
2018-12-11T18:16:50.764Z,0.77
2018-12-11T18:19:20.665Z,1.30
2018-12-11T18:21:50.617Z,0.80
2018-12-11T18:24:20.537Z,0.57
2018-12-11T18:26:50.497Z,0.82
2018-12-11T18:29:20.477Z,0.85
2018-12-11T18:31:54.614Z,0.60
2018-12-11T18:34:24.877Z,0.78
2018-12-11T18:36:55.038Z,0.80
2018-12-11T18:39:25.026Z,0.93
2018-12-11T18:41:54.997Z,0.90
2018-12-11T18:44:25.049Z,0.95
2018-12-11T18:46:55.292Z,1.00
2018-12-11T18:49:25.335Z,0.90
2018-12-11T18:51:55.472Z,0.67
2018-12-11T18:54:25.495Z,1.05
2018-12-11T18:56:55.417Z,0.80
2018-12-11T18:59:25.343Z,0.60
2018-12-11T19:01:55.319Z,1.30
2018-12-11T19:04:26.759Z,1.10
2018-12-11T19:09:41.821Z,0.70
2018-12-11T19:12:11.818Z,1.60
2018-12-11T19:14:41.833Z,1.40
2018-12-11T19:17:13.045Z,0.95
2018-12-11T19:19:43.157Z,0.80
2018-12-11T19:22:13.117Z,1.20
2018-12-11T19:24:48.653Z,1.30
2018-12-11T19:27:18.645Z,1.60
2018-12-11T19:29:48.747Z,1.23
2018-12-11T19:32:18.869Z,2.33
2018-12-11T19:34:51.280Z,1.62
2018-12-11T19:37:21.298Z,1.10
2018-12-11T19:39:51.259Z,1.10
2018-12-11T19:42:21.456Z,1.05
2018-12-11T19:44:51.545Z,1.03
2018-12-11T19:47:21.736Z,0.83
2018-12-11T19:49:51.717Z,0.80
2018-12-11T19:52:21.681Z,1.13
2018-12-11T19:54:51.802Z,1.10
2018-12-11T19:57:21.814Z,1.13
2018-12-11T19:59:51.765Z,1.30
2018-12-11T20:02:21.849Z,1.60
2018-12-11T20:04:51.905Z,2.17
2018-12-11T20:07:21.865Z,1.80
2018-12-11T20:10:28.657Z,2.40
2018-12-11T20:12:58.931Z,1.77
2018-12-11T20:15:28.916Z,1.23
2018-12-11T20:17:59.016Z,0.93
2018-12-11T20:20:31.105Z,1.30
2018-12-11T20:23:01.254Z,0.97
2018-12-11T20:25:31.165Z,1.37
2018-12-11T20:28:01.161Z,0.90
2018-12-11T20:30:31.129Z,1.33
2018-12-11T20:33:01.227Z,1.27
2018-12-11T20:35:31.293Z,2.17
2018-12-11T20:38:01.325Z,3.63
2018-12-11T20:40:31.285Z,2.37
2018-12-11T20:43:01.916Z,1.57
2018-12-11T20:45:31.776Z,0.87
2018-12-11T20:48:01.841Z,1.57
2018-12-11T20:50:31.901Z,1.47
2018-12-11T20:53:01.842Z,1.20
2018-12-11T20:55:31.780Z,1.20
2018-12-11T20:58:01.731Z,0.97
2018-12-11T21:00:34.049Z,1.07
2018-12-11T21:03:04.169Z,1.40
2018-12-11T21:05:34.184Z,1.23
2018-12-11T21:08:04.360Z,0.78
2018-12-11T21:10:34.295Z,1.43
2018-12-11T21:13:04.300Z,1.50
2018-12-11T21:15:34.235Z,1.23
2018-12-11T21:18:04.584Z,1.00
2018-12-11T21:20:34.493Z,0.80
2018-12-11T21:23:04.538Z,1.27
2018-12-11T21:25:34.476Z,1.50
2018-12-11T21:28:04.377Z,1.60
2018-12-11T21:30:34.325Z,1.83
2018-12-11T21:33:04.632Z,1.27
2018-12-11T21:35:34.581Z,1.93
2018-12-11T21:38:04.697Z,1.47
2018-12-11T21:40:34.862Z,1.57
2018-12-11T21:43:04.849Z,1.35
2018-12-11T21:45:34.800Z,1.20
2018-12-11T21:48:04.708Z,1.47
2018-12-11T21:50:34.709Z,1.70
2018-12-11T21:53:04.685Z,1.00
2018-12-11T21:55:34.710Z,0.85
2018-12-11T21:58:04.783Z,1.20
2018-12-11T22:00:34.735Z,0.93
2018-12-11T22:03:04.661Z,1.03
2018-12-11T22:05:34.712Z,1.50
2018-12-11T22:08:04.597Z,0.70
2018-12-11T22:10:34.657Z,1.10
2018-12-11T22:13:04.609Z,0.77
2018-12-11T22:15:34.525Z,0.83
2018-12-11T22:18:04.497Z,1.30
2018-12-11T22:20:34.485Z,0.93
2018-12-11T22:23:04.374Z,1.80
2018-12-11T22:25:34.288Z,2.00
2018-12-11T22:28:04.192Z,1.80
2018-12-11T22:30:34.129Z,2.00
2018-12-11T22:33:04.077Z,1.37
2018-12-11T22:35:33.997Z,1.72
2018-12-11T22:38:03.971Z,1.83
2018-12-11T22:40:35.223Z,1.67
2018-12-11T22:43:05.203Z,1.80
2018-12-11T22:45:35.125Z,1.60
2018-12-11T22:50:51.375Z,1.57
2018-12-11T22:53:22.016Z,1.06
2018-12-11T23:00:57.147Z,1.43
2018-12-11T23:03:37.046Z,1.07
2018-12-11T23:06:07.584Z,1.23
2018-12-11T23:08:37.904Z,1.20
2018-12-11T23:11:07.888Z,0.83
2018-12-11T23:13:38.013Z,0.80
2018-12-11T23:16:08.400Z,1.50
2018-12-11T23:18:38.311Z,1.00
2018-12-11T23:21:08.228Z,0.62
2018-12-11T23:23:38.685Z,1.23
2018-12-11T23:26:08.604Z,0.80
2018-12-11T23:28:38.522Z,1.50
2018-12-11T23:31:08.518Z,0.70
2018-12-11T23:33:38.439Z,1.10
2018-12-11T23:36:08.418Z,0.67
2018-12-11T23:38:39.369Z,0.70
2018-12-11T23:41:09.461Z,1.00
2018-12-11T23:43:39.500Z,1.20
2018-12-11T23:46:14.085Z,0.90
2018-12-11T23:48:44.049Z,0.97
2018-12-11T23:51:14.011Z,1.43
2018-12-11T23:53:43.916Z,0.87
2018-12-11T23:56:13.840Z,0.80
2018-12-11T23:58:44.960Z,1.23
